sensor_id;sensor_type;location;lat;lon;timestamp;P1;durP1;ratioP1;P2;durP2;ratioP2
61960;SDS011;47923;42.506;24.192;2023-04-03T00:01:11;6.80;;;3.17;;
61960;SDS011;47923;42.506;24.192;2023-04-03T00:03:37;13.07;;;6.13;;
61960;SDS011;47923;42.506;24.192;2023-04-03T00:06:03;9.82;;;4.35;;
61960;SDS011;47923;42.506;24.192;2023-04-03T00:08:31;14.75;;;7.32;;
61960;SDS011;47923;42.506;24.192;2023-04-03T00:10:57;19.67;;;11.05;;
61960;SDS011;47923;42.506;24.192;2023-04-03T00:13:23;17.17;;;9.55;;
61960;SDS011;47923;42.506;24.192;2023-04-03T00:15:48;15.95;;;8.05;;
61960;SDS011;47923;42.506;24.192;2023-04-03T00:18:14;14.93;;;7.70;;
61960;SDS011;47923;42.506;24.192;2023-04-03T00:20:40;11.20;;;6.35;;
61960;SDS011;47923;42.506;24.192;2023-04-03T00:23:05;10.48;;;4.60;;
61960;SDS011;47923;42.506;24.192;2023-04-03T00:25:31;9.82;;;4.15;;
61960;SDS011;47923;42.506;24.192;2023-04-03T00:27:57;6.20;;;3.30;;
61960;SDS011;47923;42.506;24.192;2023-04-03T00:30:22;6.63;;;3.53;;
61960;SDS011;47923;42.506;24.192;2023-04-03T00:32:49;9.75;;;5.65;;
61960;SDS011;47923;42.506;24.192;2023-04-03T00:35:15;13.70;;;8.52;;
61960;SDS011;47923;42.506;24.192;2023-04-03T00:37:41;12.32;;;7.00;;
61960;SDS011;47923;42.506;24.192;2023-04-03T00:40:07;13.70;;;8.32;;
61960;SDS011;47923;42.506;24.192;2023-04-03T00:42:33;20.33;;;12.02;;
61960;SDS011;47923;42.506;24.192;2023-04-03T00:47:25;18.42;;;9.55;;
61960;SDS011;47923;42.506;24.192;2023-04-03T00:49:52;19.25;;;10.13;;
61960;SDS011;47923;42.506;24.192;2023-04-03T00:52:19;22.42;;;12.75;;
61960;SDS011;47923;42.506;24.192;2023-04-03T00:54:48;21.48;;;13.40;;
61960;SDS011;47923;42.506;24.192;2023-04-03T00:57:17;13.73;;;8.38;;
61960;SDS011;47923;42.506;24.192;2023-04-03T00:59:44;8.38;;;4.15;;
61960;SDS011;47923;42.506;24.192;2023-04-03T01:02:15;5.45;;;2.30;;
61960;SDS011;47923;42.506;24.192;2023-04-03T01:04:42;6.70;;;3.15;;
61960;SDS011;47923;42.506;24.192;2023-04-03T01:07:10;6.18;;;2.42;;
61960;SDS011;47923;42.506;24.192;2023-04-03T01:09:40;8.65;;;3.20;;
61960;SDS011;47923;42.506;24.192;2023-04-03T01:12:19;6.20;;;2.50;;
61960;SDS011;47923;42.506;24.192;2023-04-03T01:14:54;3.13;;;1.70;;
61960;SDS011;47923;42.506;24.192;2023-04-03T01:17:35;4.25;;;1.67;;
61960;SDS011;47923;42.506;24.192;2023-04-03T01:25:34;9.13;;;3.95;;
61960;SDS011;47923;42.506;24.192;2023-04-03T01:28:01;12.25;;;5.53;;
61960;SDS011;47923;42.506;24.192;2023-04-03T01:30:29;11.52;;;5.43;;
61960;SDS011;47923;42.506;24.192;2023-04-03T01:32:57;10.93;;;5.32;;
61960;SDS011;47923;42.506;24.192;2023-04-03T01:35:23;13.38;;;7.43;;
61960;SDS011;47923;42.506;24.192;2023-04-03T01:37:48;11.18;;;5.82;;
61960;SDS011;47923;42.506;24.192;2023-04-03T01:40:14;9.85;;;4.57;;
61960;SDS011;47923;42.506;24.192;2023-04-03T01:42:40;9.30;;;4.18;;
61960;SDS011;47923;42.506;24.192;2023-04-03T01:45:05;9.23;;;3.72;;
61960;SDS011;47923;42.506;24.192;2023-04-03T01:47:31;6.60;;;3.47;;
61960;SDS011;47923;42.506;24.192;2023-04-03T01:49:57;5.70;;;2.80;;
61960;SDS011;47923;42.506;24.192;2023-04-03T01:52:22;6.25;;;2.90;;
61960;SDS011;47923;42.506;24.192;2023-04-03T01:54:48;5.13;;;2.65;;
61960;SDS011;47923;42.506;24.192;2023-04-03T01:57:13;6.18;;;2.85;;
61960;SDS011;47923;42.506;24.192;2023-04-03T01:59:41;5.78;;;2.83;;
61960;SDS011;47923;42.506;24.192;2023-04-03T02:02:07;11.23;;;5.40;;
61960;SDS011;47923;42.506;24.192;2023-04-03T02:04:33;15.35;;;8.63;;
61960;SDS011;47923;42.506;24.192;2023-04-03T02:06:58;14.57;;;7.97;;
61960;SDS011;47923;42.506;24.192;2023-04-03T02:09:24;16.10;;;8.75;;
61960;SDS011;47923;42.506;24.192;2023-04-03T02:11:49;23.70;;;11.15;;
61960;SDS011;47923;42.506;24.192;2023-04-03T02:14:15;11.02;;;5.97;;
61960;SDS011;47923;42.506;24.192;2023-04-03T02:16:42;10.77;;;4.60;;
61960;SDS011;47923;42.506;24.192;2023-04-03T02:19:08;9.23;;;4.38;;
61960;SDS011;47923;42.506;24.192;2023-04-03T02:21:33;8.63;;;4.82;;
61960;SDS011;47923;42.506;24.192;2023-04-03T02:23:59;8.57;;;4.53;;
61960;SDS011;47923;42.506;24.192;2023-04-03T02:26:24;10.95;;;5.90;;
61960;SDS011;47923;42.506;24.192;2023-04-03T02:28:50;11.48;;;5.82;;
61960;SDS011;47923;42.506;24.192;2023-04-03T02:31:16;13.93;;;5.72;;
61960;SDS011;47923;42.506;24.192;2023-04-03T02:33:44;15.70;;;8.90;;
61960;SDS011;47923;42.506;24.192;2023-04-03T02:36:09;16.60;;;10.52;;
61960;SDS011;47923;42.506;24.192;2023-04-03T02:38:35;18.42;;;9.63;;
61960;SDS011;47923;42.506;24.192;2023-04-03T02:41:08;13.88;;;7.60;;
61960;SDS011;47923;42.506;24.192;2023-04-03T02:43:36;14.38;;;5.65;;
61960;SDS011;47923;42.506;24.192;2023-04-03T02:46:02;14.10;;;7.25;;
61960;SDS011;47923;42.506;24.192;2023-04-03T02:48:28;12.73;;;6.65;;
61960;SDS011;47923;42.506;24.192;2023-04-03T02:50:54;14.38;;;6.88;;
61960;SDS011;47923;42.506;24.192;2023-04-03T02:53:20;10.50;;;5.43;;
61960;SDS011;47923;42.506;24.192;2023-04-03T02:55:46;10.15;;;5.03;;
61960;SDS011;47923;42.506;24.192;2023-04-03T02:58:12;9.52;;;5.53;;
61960;SDS011;47923;42.506;24.192;2023-04-03T03:00:37;11.48;;;5.63;;
61960;SDS011;47923;42.506;24.192;2023-04-03T03:03:03;14.30;;;5.40;;
61960;SDS011;47923;42.506;24.192;2023-04-03T03:05:29;11.25;;;4.93;;
61960;SDS011;47923;42.506;24.192;2023-04-03T03:07:54;10.60;;;4.35;;
61960;SDS011;47923;42.506;24.192;2023-04-03T03:10:20;10.68;;;4.50;;
61960;SDS011;47923;42.506;24.192;2023-04-03T03:12:46;11.10;;;5.00;;
61960;SDS011;47923;42.506;24.192;2023-04-03T03:15:12;10.52;;;3.90;;
61960;SDS011;47923;42.506;24.192;2023-04-03T03:17:37;11.77;;;4.90;;
61960;SDS011;47923;42.506;24.192;2023-04-03T03:20:04;11.73;;;5.53;;
61960;SDS011;47923;42.506;24.192;2023-04-03T03:22:30;12.77;;;6.25;;
61960;SDS011;47923;42.506;24.192;2023-04-03T03:24:56;13.82;;;6.97;;
61960;SDS011;47923;42.506;24.192;2023-04-03T03:27:21;12.10;;;6.07;;
61960;SDS011;47923;42.506;24.192;2023-04-03T03:29:47;9.73;;;4.78;;
61960;SDS011;47923;42.506;24.192;2023-04-03T03:32:12;7.82;;;4.03;;
61960;SDS011;47923;42.506;24.192;2023-04-03T03:34:38;9.57;;;5.38;;
61960;SDS011;47923;42.506;24.192;2023-04-03T03:37:03;17.65;;;9.50;;
61960;SDS011;47923;42.506;24.192;2023-04-03T03:39:29;12.95;;;6.93;;
61960;SDS011;47923;42.506;24.192;2023-04-03T03:41:55;21.23;;;11.55;;
61960;SDS011;47923;42.506;24.192;2023-04-03T03:44:20;28.33;;;15.02;;
61960;SDS011;47923;42.506;24.192;2023-04-03T03:46:46;28.45;;;16.02;;
61960;SDS011;47923;42.506;24.192;2023-04-03T03:49:11;35.22;;;21.58;;
61960;SDS011;47923;42.506;24.192;2023-04-03T03:51:37;35.22;;;22.27;;
61960;SDS011;47923;42.506;24.192;2023-04-03T03:54:04;34.20;;;21.10;;
61960;SDS011;47923;42.506;24.192;2023-04-03T03:56:30;27.70;;;18.10;;
61960;SDS011;47923;42.506;24.192;2023-04-03T03:58:58;16.48;;;9.70;;
61960;SDS011;47923;42.506;24.192;2023-04-03T04:01:24;13.88;;;7.30;;
61960;SDS011;47923;42.506;24.192;2023-04-03T04:03:50;6.80;;;4.03;;
61960;SDS011;47923;42.506;24.192;2023-04-03T04:06:16;8.68;;;4.18;;
61960;SDS011;47923;42.506;24.192;2023-04-03T04:08:42;7.43;;;3.80;;
61960;SDS011;47923;42.506;24.192;2023-04-03T04:11:07;9.95;;;4.22;;
61960;SDS011;47923;42.506;24.192;2023-04-03T04:13:33;39.58;;;20.00;;
61960;SDS011;47923;42.506;24.192;2023-04-03T04:15:59;44.35;;;24.58;;
61960;SDS011;47923;42.506;24.192;2023-04-03T04:18:24;49.33;;;29.25;;
61960;SDS011;47923;42.506;24.192;2023-04-03T04:20:50;44.15;;;24.95;;
61960;SDS011;47923;42.506;24.192;2023-04-03T04:23:16;32.30;;;19.30;;
61960;SDS011;47923;42.506;24.192;2023-04-03T04:25:46;25.02;;;15.88;;
61960;SDS011;47923;42.506;24.192;2023-04-03T04:28:12;30.40;;;20.05;;
61960;SDS011;47923;42.506;24.192;2023-04-03T04:30:38;23.05;;;13.30;;
61960;SDS011;47923;42.506;24.192;2023-04-03T04:33:03;15.85;;;8.45;;
61960;SDS011;47923;42.506;24.192;2023-04-03T04:35:28;21.67;;;13.82;;
61960;SDS011;47923;42.506;24.192;2023-04-03T04:37:54;16.75;;;11.35;;
61960;SDS011;47923;42.506;24.192;2023-04-03T04:40:20;23.05;;;15.23;;
61960;SDS011;47923;42.506;24.192;2023-04-03T04:42:45;18.98;;;12.60;;
61960;SDS011;47923;42.506;24.192;2023-04-03T04:45:11;18.73;;;11.77;;
61960;SDS011;47923;42.506;24.192;2023-04-03T04:47:37;31.33;;;18.75;;
61960;SDS011;47923;42.506;24.192;2023-04-03T04:50:02;41.17;;;28.42;;
61960;SDS011;47923;42.506;24.192;2023-04-03T04:52:28;44.85;;;26.15;;
61960;SDS011;47923;42.506;24.192;2023-04-03T04:54:54;35.30;;;22.65;;
61960;SDS011;47923;42.506;24.192;2023-04-03T04:57:19;33.50;;;20.10;;
61960;SDS011;47923;42.506;24.192;2023-04-03T04:59:45;44.10;;;28.38;;
61960;SDS011;47923;42.506;24.192;2023-04-03T05:02:10;41.63;;;25.30;;
61960;SDS011;47923;42.506;24.192;2023-04-03T05:04:36;37.95;;;24.80;;
61960;SDS011;47923;42.506;24.192;2023-04-03T05:07:01;47.53;;;29.70;;
61960;SDS011;47923;42.506;24.192;2023-04-03T05:09:27;44.83;;;27.67;;
61960;SDS011;47923;42.506;24.192;2023-04-03T05:11:52;45.05;;;28.05;;
61960;SDS011;47923;42.506;24.192;2023-04-03T05:14:18;45.30;;;28.30;;
61960;SDS011;47923;42.506;24.192;2023-04-03T05:16:43;45.05;;;28.40;;
61960;SDS011;47923;42.506;24.192;2023-04-03T05:19:09;40.95;;;28.92;;
61960;SDS011;47923;42.506;24.192;2023-04-03T05:21:34;34.67;;;23.75;;
61960;SDS011;47923;42.506;24.192;2023-04-03T05:24:00;43.42;;;28.38;;
61960;SDS011;47923;42.506;24.192;2023-04-03T05:26:28;58.83;;;35.95;;
61960;SDS011;47923;42.506;24.192;2023-04-03T05:28:54;59.22;;;38.78;;
61960;SDS011;47923;42.506;24.192;2023-04-03T05:31:20;44.58;;;27.85;;
61960;SDS011;47923;42.506;24.192;2023-04-03T05:33:46;42.13;;;26.20;;
61960;SDS011;47923;42.506;24.192;2023-04-03T05:36:12;58.20;;;33.40;;
61960;SDS011;47923;42.506;24.192;2023-04-03T05:38:38;51.30;;;30.23;;
61960;SDS011;47923;42.506;24.192;2023-04-03T05:41:04;42.22;;;26.10;;
61960;SDS011;47923;42.506;24.192;2023-04-03T05:43:30;38.60;;;22.38;;
61960;SDS011;47923;42.506;24.192;2023-04-03T05:45:55;16.15;;;10.32;;
61960;SDS011;47923;42.506;24.192;2023-04-03T05:48:21;24.77;;;15.15;;
61960;SDS011;47923;42.506;24.192;2023-04-03T05:50:46;32.40;;;23.17;;
61960;SDS011;47923;42.506;24.192;2023-04-03T05:53:14;38.00;;;25.60;;
61960;SDS011;47923;42.506;24.192;2023-04-03T05:55:48;45.42;;;30.02;;
61960;SDS011;47923;42.506;24.192;2023-04-03T05:58:14;49.97;;;36.50;;
61960;SDS011;47923;42.506;24.192;2023-04-03T06:00:39;56.25;;;39.17;;
61960;SDS011;47923;42.506;24.192;2023-04-03T06:03:05;51.72;;;38.28;;
61960;SDS011;47923;42.506;24.192;2023-04-03T06:05:31;57.75;;;36.90;;
61960;SDS011;47923;42.506;24.192;2023-04-03T06:07:56;59.42;;;38.85;;
61960;SDS011;47923;42.506;24.192;2023-04-03T06:10:22;54.45;;;40.08;;
61960;SDS011;47923;42.506;24.192;2023-04-03T06:12:48;53.97;;;39.85;;
61960;SDS011;47923;42.506;24.192;2023-04-03T06:15:13;55.75;;;40.60;;
61960;SDS011;47923;42.506;24.192;2023-04-03T06:17:40;51.33;;;38.67;;
61960;SDS011;47923;42.506;24.192;2023-04-03T06:20:06;48.45;;;36.38;;
61960;SDS011;47923;42.506;24.192;2023-04-03T06:22:32;48.88;;;36.95;;
61960;SDS011;47923;42.506;24.192;2023-04-03T06:24:58;49.75;;;38.30;;
61960;SDS011;47923;42.506;24.192;2023-04-03T06:27:23;59.03;;;39.13;;
61960;SDS011;47923;42.506;24.192;2023-04-03T06:29:52;48.28;;;36.05;;
61960;SDS011;47923;42.506;24.192;2023-04-03T06:32:17;59.25;;;33.75;;
61960;SDS011;47923;42.506;24.192;2023-04-03T06:34:42;43.70;;;30.80;;
61960;SDS011;47923;42.506;24.192;2023-04-03T06:37:15;40.85;;;27.65;;
61960;SDS011;47923;42.506;24.192;2023-04-03T06:39:41;31.27;;;23.65;;
61960;SDS011;47923;42.506;24.192;2023-04-03T06:42:07;33.15;;;23.80;;
61960;SDS011;47923;42.506;24.192;2023-04-03T06:44:32;35.83;;;28.05;;
61960;SDS011;47923;42.506;24.192;2023-04-03T06:46:59;35.55;;;25.10;;
61960;SDS011;47923;42.506;24.192;2023-04-03T06:49:25;41.33;;;32.00;;
61960;SDS011;47923;42.506;24.192;2023-04-03T06:51:51;65.72;;;47.25;;
61960;SDS011;47923;42.506;24.192;2023-04-03T06:54:16;56.10;;;40.15;;
61960;SDS011;47923;42.506;24.192;2023-04-03T06:56:42;45.08;;;30.75;;
61960;SDS011;47923;42.506;24.192;2023-04-03T06:59:09;55.05;;;39.60;;
61960;SDS011;47923;42.506;24.192;2023-04-03T07:01:35;53.53;;;36.78;;
61960;SDS011;47923;42.506;24.192;2023-04-03T07:04:01;43.03;;;32.72;;
61960;SDS011;47923;42.506;24.192;2023-04-03T07:06:26;44.78;;;34.30;;
61960;SDS011;47923;42.506;24.192;2023-04-03T07:08:52;53.95;;;39.30;;
61960;SDS011;47923;42.506;24.192;2023-04-03T07:11:18;50.33;;;38.60;;
61960;SDS011;47923;42.506;24.192;2023-04-03T07:13:43;58.42;;;41.45;;
61960;SDS011;47923;42.506;24.192;2023-04-03T07:16:11;52.53;;;37.65;;
61960;SDS011;47923;42.506;24.192;2023-04-03T07:18:37;38.92;;;30.52;;
61960;SDS011;47923;42.506;24.192;2023-04-03T07:21:03;46.60;;;33.22;;
61960;SDS011;47923;42.506;24.192;2023-04-03T07:23:29;53.80;;;40.28;;
61960;SDS011;47923;42.506;24.192;2023-04-03T07:25:54;46.60;;;34.83;;
61960;SDS011;47923;42.506;24.192;2023-04-03T07:28:21;46.63;;;29.02;;
61960;SDS011;47923;42.506;24.192;2023-04-03T07:30:54;58.10;;;46.25;;
61960;SDS011;47923;42.506;24.192;2023-04-03T07:33:25;57.92;;;45.20;;
61960;SDS011;47923;42.506;24.192;2023-04-03T07:35:51;58.67;;;47.55;;
61960;SDS011;47923;42.506;24.192;2023-04-03T07:38:18;66.65;;;45.83;;
61960;SDS011;47923;42.506;24.192;2023-04-03T07:40:47;59.53;;;45.42;;
61960;SDS011;47923;42.506;24.192;2023-04-03T07:43:15;43.10;;;34.33;;
61960;SDS011;47923;42.506;24.192;2023-04-03T07:45:41;52.40;;;37.88;;
61960;SDS011;47923;42.506;24.192;2023-04-03T07:48:07;59.10;;;44.22;;
61960;SDS011;47923;42.506;24.192;2023-04-03T07:50:32;62.80;;;47.13;;
61960;SDS011;47923;42.506;24.192;2023-04-03T07:52:58;70.47;;;54.40;;
61960;SDS011;47923;42.506;24.192;2023-04-03T07:55:24;59.55;;;45.47;;
61960;SDS011;47923;42.506;24.192;2023-04-03T07:57:50;49.45;;;41.03;;
61960;SDS011;47923;42.506;24.192;2023-04-03T08:00:16;43.25;;;36.88;;
61960;SDS011;47923;42.506;24.192;2023-04-03T08:02:45;45.88;;;38.58;;
61960;SDS011;47923;42.506;24.192;2023-04-03T08:05:16;50.80;;;41.15;;
61960;SDS011;47923;42.506;24.192;2023-04-03T08:07:42;59.20;;;43.78;;
61960;SDS011;47923;42.506;24.192;2023-04-03T08:10:08;46.70;;;35.42;;
61960;SDS011;47923;42.506;24.192;2023-04-03T08:12:34;48.00;;;36.25;;
61960;SDS011;47923;42.506;24.192;2023-04-03T08:15:01;37.08;;;28.65;;
61960;SDS011;47923;42.506;24.192;2023-04-03T08:17:28;37.47;;;25.48;;
61960;SDS011;47923;42.506;24.192;2023-04-03T08:19:53;26.65;;;18.35;;
61960;SDS011;47923;42.506;24.192;2023-04-03T08:22:19;29.20;;;20.35;;
61960;SDS011;47923;42.506;24.192;2023-04-03T08:24:45;26.63;;;20.70;;
61960;SDS011;47923;42.506;24.192;2023-04-03T08:27:11;17.63;;;12.35;;
61960;SDS011;47923;42.506;24.192;2023-04-03T08:29:37;6.72;;;2.30;;
61960;SDS011;47923;42.506;24.192;2023-04-03T08:32:03;6.35;;;3.00;;
61960;SDS011;47923;42.506;24.192;2023-04-03T08:34:29;9.23;;;4.22;;
61960;SDS011;47923;42.506;24.192;2023-04-03T08:36:55;8.75;;;4.00;;
61960;SDS011;47923;42.506;24.192;2023-04-03T08:39:21;6.53;;;3.80;;
61960;SDS011;47923;42.506;24.192;2023-04-03T08:41:46;7.05;;;4.13;;
61960;SDS011;47923;42.506;24.192;2023-04-03T08:47:24;8.40;;;3.55;;
61960;SDS011;47923;42.506;24.192;2023-04-03T08:49:52;3.45;;;1.70;;
61960;SDS011;47923;42.506;24.192;2023-04-03T08:52:27;4.22;;;1.80;;
61960;SDS011;47923;42.506;24.192;2023-04-03T08:55:01;4.28;;;1.35;;
61960;SDS011;47923;42.506;24.192;2023-04-03T08:57:36;7.85;;;3.38;;
61960;SDS011;47923;42.506;24.192;2023-04-03T09:00:06;8.88;;;2.75;;
61960;SDS011;47923;42.506;24.192;2023-04-03T09:02:54;6.97;;;2.63;;
61960;SDS011;47923;42.506;24.192;2023-04-03T09:10:48;2.85;;;1.60;;
61960;SDS011;47923;42.506;24.192;2023-04-03T09:13:28;6.07;;;3.58;;
61960;SDS011;47923;42.506;24.192;2023-04-03T09:15:58;5.72;;;2.80;;
61960;SDS011;47923;42.506;24.192;2023-04-03T09:18:28;5.70;;;2.35;;
61960;SDS011;47923;42.506;24.192;2023-04-03T09:21:01;4.97;;;2.28;;
61960;SDS011;47923;42.506;24.192;2023-04-03T09:23:48;4.60;;;2.30;;
61960;SDS011;47923;42.506;24.192;2023-04-03T09:26:17;4.15;;;1.92;;
61960;SDS011;47923;42.506;24.192;2023-04-03T09:28:46;5.95;;;2.42;;
61960;SDS011;47923;42.506;24.192;2023-04-03T09:31:21;12.05;;;5.97;;
61960;SDS011;47923;42.506;24.192;2023-04-03T09:33:51;11.88;;;6.22;;
61960;SDS011;47923;42.506;24.192;2023-04-03T09:39:30;3.85;;;1.83;;
61960;SDS011;47923;42.506;24.192;2023-04-03T09:42:01;64.97;;;41.58;;
61960;SDS011;47923;42.506;24.192;2023-04-03T09:44:40;8.05;;;3.30;;
61960;SDS011;47923;42.506;24.192;2023-04-03T09:47:25;31.52;;;20.42;;
61960;SDS011;47923;42.506;24.192;2023-04-03T09:52:54;9.57;;;4.32;;
61960;SDS011;47923;42.506;24.192;2023-04-03T09:57:59;8.23;;;3.92;;
61960;SDS011;47923;42.506;24.192;2023-04-03T10:00:28;12.77;;;5.55;;
61960;SDS011;47923;42.506;24.192;2023-04-03T10:02:58;6.10;;;2.85;;
61960;SDS011;47923;42.506;24.192;2023-04-03T10:10:42;14.25;;;7.10;;
61960;SDS011;47923;42.506;24.192;2023-04-03T10:13:13;5.97;;;3.08;;
61960;SDS011;47923;42.506;24.192;2023-04-03T10:15:56;5.38;;;2.15;;
61960;SDS011;47923;42.506;24.192;2023-04-03T10:18:42;10.98;;;3.90;;
61960;SDS011;47923;42.506;24.192;2023-04-03T10:34:39;10.18;;;5.80;;
61960;SDS011;47923;42.506;24.192;2023-04-03T10:37:42;8.60;;;3.15;;
61960;SDS011;47923;42.506;24.192;2023-04-03T10:51:14;9.85;;;5.40;;
61960;SDS011;47923;42.506;24.192;2023-04-03T10:54:08;8.45;;;4.22;;
61960;SDS011;47923;42.506;24.192;2023-04-03T10:59:25;11.75;;;6.10;;
61960;SDS011;47923;42.506;24.192;2023-04-03T11:01:59;13.18;;;7.20;;
61960;SDS011;47923;42.506;24.192;2023-04-03T11:04:31;10.32;;;5.05;;
61960;SDS011;47923;42.506;24.192;2023-04-03T11:07:17;8.55;;;4.40;;
61960;SDS011;47923;42.506;24.192;2023-04-03T11:09:48;18.25;;;9.80;;
61960;SDS011;47923;42.506;24.192;2023-04-03T11:12:23;7.35;;;4.13;;
61960;SDS011;47923;42.506;24.192;2023-04-03T11:14:53;19.05;;;10.80;;
61960;SDS011;47923;42.506;24.192;2023-04-03T11:17:23;12.18;;;7.15;;
61960;SDS011;47923;42.506;24.192;2023-04-03T11:20:13;11.07;;;7.60;;
61960;SDS011;47923;42.506;24.192;2023-04-03T11:22:51;9.73;;;5.95;;
61960;SDS011;47923;42.506;24.192;2023-04-03T11:25:24;12.98;;;4.57;;
61960;SDS011;47923;42.506;24.192;2023-04-03T11:27:57;12.65;;;7.22;;
61960;SDS011;47923;42.506;24.192;2023-04-03T11:30:40;8.80;;;4.63;;
61960;SDS011;47923;42.506;24.192;2023-04-03T11:38:59;13.60;;;8.48;;
61960;SDS011;47923;42.506;24.192;2023-04-03T11:41:35;9.60;;;5.63;;
61960;SDS011;47923;42.506;24.192;2023-04-03T11:44:03;12.85;;;7.07;;
61960;SDS011;47923;42.506;24.192;2023-04-03T11:46:51;14.05;;;8.60;;
61960;SDS011;47923;42.506;24.192;2023-04-03T11:52:53;13.02;;;7.72;;
61960;SDS011;47923;42.506;24.192;2023-04-03T11:58:33;8.10;;;4.28;;
61960;SDS011;47923;42.506;24.192;2023-04-03T12:08:26;20.85;;;13.98;;
61960;SDS011;47923;42.506;24.192;2023-04-03T12:24:37;10.65;;;7.38;;
61960;SDS011;47923;42.506;24.192;2023-04-03T12:29:59;44.25;;;30.95;;
61960;SDS011;47923;42.506;24.192;2023-04-03T12:35:14;15.35;;;8.45;;
61960;SDS011;47923;42.506;24.192;2023-04-03T12:46:48;16.23;;;9.98;;
61960;SDS011;47923;42.506;24.192;2023-04-03T12:51:59;12.27;;;6.78;;
61960;SDS011;47923;42.506;24.192;2023-04-03T12:54:38;11.45;;;7.20;;
61960;SDS011;47923;42.506;24.192;2023-04-03T12:57:09;19.50;;;15.52;;
61960;SDS011;47923;42.506;24.192;2023-04-03T12:59:43;11.98;;;6.63;;
61960;SDS011;47923;42.506;24.192;2023-04-03T13:02:17;12.25;;;7.80;;
61960;SDS011;47923;42.506;24.192;2023-04-03T13:04:48;32.65;;;18.13;;
61960;SDS011;47923;42.506;24.192;2023-04-03T13:07:20;37.00;;;21.10;;
61960;SDS011;47923;42.506;24.192;2023-04-03T13:09:56;40.83;;;26.05;;
61960;SDS011;47923;42.506;24.192;2023-04-03T13:12:24;16.02;;;9.15;;
61960;SDS011;47923;42.506;24.192;2023-04-03T13:14:55;13.25;;;7.03;;
61960;SDS011;47923;42.506;24.192;2023-04-03T13:17:23;25.23;;;15.93;;
61960;SDS011;47923;42.506;24.192;2023-04-03T13:19:49;20.38;;;13.52;;
61960;SDS011;47923;42.506;24.192;2023-04-03T13:24:59;20.40;;;13.57;;
61960;SDS011;47923;42.506;24.192;2023-04-03T13:27:30;54.22;;;34.15;;
61960;SDS011;47923;42.506;24.192;2023-04-03T13:29:57;21.10;;;14.30;;
61960;SDS011;47923;42.506;24.192;2023-04-03T13:32:25;27.50;;;17.77;;
61960;SDS011;47923;42.506;24.192;2023-04-03T13:34:53;26.13;;;19.13;;
61960;SDS011;47923;42.506;24.192;2023-04-03T13:37:22;16.42;;;11.20;;
61960;SDS011;47923;42.506;24.192;2023-04-03T13:40:17;10.40;;;5.28;;
61960;SDS011;47923;42.506;24.192;2023-04-03T13:42:42;10.55;;;5.72;;
61960;SDS011;47923;42.506;24.192;2023-04-03T13:48:08;22.17;;;15.18;;
61960;SDS011;47923;42.506;24.192;2023-04-03T13:51:18;10.23;;;5.85;;
61960;SDS011;47923;42.506;24.192;2023-04-03T13:53:41;14.98;;;8.65;;
61960;SDS011;47923;42.506;24.192;2023-04-03T14:01:46;33.85;;;23.13;;
61960;SDS011;47923;42.506;24.192;2023-04-03T14:04:35;15.95;;;11.52;;
61960;SDS011;47923;42.506;24.192;2023-04-03T14:07:09;29.90;;;17.70;;
61960;SDS011;47923;42.506;24.192;2023-04-03T14:09:35;17.15;;;11.57;;
61960;SDS011;47923;42.506;24.192;2023-04-03T14:12:06;14.60;;;10.57;;
61960;SDS011;47923;42.506;24.192;2023-04-03T14:14:43;20.95;;;15.80;;
61960;SDS011;47923;42.506;24.192;2023-04-03T14:17:13;19.45;;;17.45;;
61960;SDS011;47923;42.506;24.192;2023-04-03T14:19:43;18.55;;;14.45;;
61960;SDS011;47923;42.506;24.192;2023-04-03T14:22:21;40.00;;;28.15;;
61960;SDS011;47923;42.506;24.192;2023-04-03T14:24:50;25.48;;;19.20;;
61960;SDS011;47923;42.506;24.192;2023-04-03T14:29:48;20.92;;;14.35;;
61960;SDS011;47923;42.506;24.192;2023-04-03T14:32:16;12.00;;;7.35;;
61960;SDS011;47923;42.506;24.192;2023-04-03T14:34:43;13.27;;;9.35;;
61960;SDS011;47923;42.506;24.192;2023-04-03T14:37:10;14.02;;;10.48;;
61960;SDS011;47923;42.506;24.192;2023-04-03T14:39:40;15.20;;;10.50;;
61960;SDS011;47923;42.506;24.192;2023-04-03T14:42:10;14.40;;;9.30;;
61960;SDS011;47923;42.506;24.192;2023-04-03T14:44:38;11.90;;;7.53;;
61960;SDS011;47923;42.506;24.192;2023-04-03T14:47:03;18.88;;;10.10;;
61960;SDS011;47923;42.506;24.192;2023-04-03T14:49:29;20.38;;;14.73;;
61960;SDS011;47923;42.506;24.192;2023-04-03T14:51:56;19.77;;;14.55;;
61960;SDS011;47923;42.506;24.192;2023-04-03T14:54:23;15.65;;;11.10;;
61960;SDS011;47923;42.506;24.192;2023-04-03T14:56:54;28.33;;;19.50;;
61960;SDS011;47923;42.506;24.192;2023-04-03T14:59:20;21.33;;;14.55;;
61960;SDS011;47923;42.506;24.192;2023-04-03T15:01:46;28.75;;;20.80;;
61960;SDS011;47923;42.506;24.192;2023-04-03T15:04:21;50.38;;;35.97;;
61960;SDS011;47923;42.506;24.192;2023-04-03T15:06:47;40.95;;;32.25;;
61960;SDS011;47923;42.506;24.192;2023-04-03T15:09:21;19.35;;;14.00;;
61960;SDS011;47923;42.506;24.192;2023-04-03T15:11:51;21.58;;;14.55;;
61960;SDS011;47923;42.506;24.192;2023-04-03T15:14:18;22.17;;;16.15;;
61960;SDS011;47923;42.506;24.192;2023-04-03T15:16:43;29.63;;;16.45;;
61960;SDS011;47923;42.506;24.192;2023-04-03T15:19:09;22.48;;;16.98;;
61960;SDS011;47923;42.506;24.192;2023-04-03T15:21:36;22.63;;;16.55;;
61960;SDS011;47923;42.506;24.192;2023-04-03T15:24:02;21.20;;;13.35;;
61960;SDS011;47923;42.506;24.192;2023-04-03T15:26:28;16.23;;;12.32;;
61960;SDS011;47923;42.506;24.192;2023-04-03T15:28:55;16.75;;;12.18;;
61960;SDS011;47923;42.506;24.192;2023-04-03T15:31:22;19.05;;;12.93;;
61960;SDS011;47923;42.506;24.192;2023-04-03T15:33:48;15.05;;;11.43;;
61960;SDS011;47923;42.506;24.192;2023-04-03T15:36:13;15.35;;;11.43;;
61960;SDS011;47923;42.506;24.192;2023-04-03T15:38:39;102.60;;;63.45;;
61960;SDS011;47923;42.506;24.192;2023-04-03T15:41:05;99.90;;;60.40;;
61960;SDS011;47923;42.506;24.192;2023-04-03T15:43:30;68.40;;;45.85;;
61960;SDS011;47923;42.506;24.192;2023-04-03T15:45:58;46.92;;;34.13;;
61960;SDS011;47923;42.506;24.192;2023-04-03T15:48:25;36.95;;;29.50;;
61960;SDS011;47923;42.506;24.192;2023-04-03T15:50:52;21.08;;;16.48;;
61960;SDS011;47923;42.506;24.192;2023-04-03T15:53:18;20.65;;;16.33;;
61960;SDS011;47923;42.506;24.192;2023-04-03T15:55:44;17.52;;;14.10;;
61960;SDS011;47923;42.506;24.192;2023-04-03T15:58:09;13.95;;;10.15;;
61960;SDS011;47923;42.506;24.192;2023-04-03T16:00:35;14.02;;;9.80;;
61960;SDS011;47923;42.506;24.192;2023-04-03T16:03:04;14.02;;;9.30;;
61960;SDS011;47923;42.506;24.192;2023-04-03T16:05:33;14.35;;;10.32;;
61960;SDS011;47923;42.506;24.192;2023-04-03T16:08:01;16.08;;;11.75;;
61960;SDS011;47923;42.506;24.192;2023-04-03T16:10:27;28.40;;;24.08;;
61960;SDS011;47923;42.506;24.192;2023-04-03T16:12:53;24.38;;;18.13;;
61960;SDS011;47923;42.506;24.192;2023-04-03T16:15:18;29.15;;;19.67;;
61960;SDS011;47923;42.506;24.192;2023-04-03T16:17:44;22.88;;;15.40;;
61960;SDS011;47923;42.506;24.192;2023-04-03T16:20:10;36.97;;;24.90;;
61960;SDS011;47923;42.506;24.192;2023-04-03T16:22:38;27.70;;;20.80;;
61960;SDS011;47923;42.506;24.192;2023-04-03T16:25:05;29.73;;;24.08;;